Time;durP1;ratioP1;P1;durP2;ratioP2;P2;SDS_P1;SDS_P2;PMS_P1;PMS_P2;Temp;Humidity;BMP_temperature;BMP_pressure;BME280_temperature;BME280_humidity;BME280_pressure;Samples;Min_cycle;Max_cycle;Signal;HPM_P1;HPM_P2
2021/12/24 00:01:28;;;;;;;0.40;0.40;;;7.30;99.90;;;;;;5064076;28;20206;-85
2021/12/24 00:03:53;;;;;;;0.87;0.77;;;7.30;99.90;;;;;;5064177;28;20723;-84
2021/12/24 00:06:19;;;;;;;2.70;0.93;;;7.30;99.90;;;;;;5061255;28;20531;-85
2021/12/24 00:08:46;;;;;;;2.00;0.67;;;7.30;99.90;;;;;;5061913;28;20177;-84
2021/12/24 00:11:13;;;;;;;0.73;0.73;;;7.30;99.90;;;;;;5066566;28;20217;-85
2021/12/24 00:13:42;;;;;;;0.37;0.37;;;7.30;99.90;;;;;;5065900;28;20978;-84
2021/12/24 00:16:18;;;;;;;1.27;0.77;;;7.40;99.90;;;;;;5066379;28;20276;-85
2021/12/24 00:22:16;;;;;;;3.87;0.53;;;7.40;99.90;;;;;;5067944;28;20210;-84
2021/12/24 00:35:16;;;;;;;1.57;0.77;;;7.40;99.90;;;;;;5068100;28;20205;-86
2021/12/24 00:37:46;;;;;;;1.77;1.37;;;7.40;99.90;;;;;;5064063;28;20669;-85
2021/12/24 00:40:18;;;;;;;0.73;0.70;;;7.40;99.90;;;;;;5064271;28;20194;-85
2021/12/24 00:42:50;;;;;;;0.97;0.97;;;7.40;99.90;;;;;;5062116;28;20203;-84
2021/12/24 00:45:24;;;;;;;0.83;0.67;;;7.40;99.90;;;;;;5066027;28;20176;-85
2021/12/24 00:47:51;;;;;;;1.00;1.00;;;7.40;99.90;;;;;;5066861;28;20177;-85
2021/12/24 00:50:22;;;;;;;0.43;0.43;;;7.40;99.90;;;;;;5064173;28;20272;-85
2021/12/24 00:52:50;;;;;;;1.30;1.13;;;7.40;99.90;;;;;;5065882;28;20186;-84
2021/12/24 00:55:19;;;;;;;1.03;0.70;;;7.40;99.90;;;;;;5065706;28;20189;-85
2021/12/24 00:57:48;;;;;;;0.37;0.37;;;7.40;99.90;;;;;;5065244;28;20185;-85
2021/12/24 01:00:21;;;;;;;1.17;1.07;;;7.40;99.90;;;;;;5065525;28;20260;-84
2021/12/24 01:02:48;;;;;;;1.03;0.93;;;7.40;99.90;;;;;;5065220;28;20210;-85
2021/12/24 01:05:14;;;;;;;2.57;1.10;;;7.40;99.90;;;;;;5063192;28;20178;-85
2021/12/24 01:07:44;;;;;;;3.10;0.83;;;7.40;99.90;;;;;;5058534;28;20208;-85
2021/12/24 01:10:11;;;;;;;2.00;0.83;;;7.50;99.90;;;;;;5064690;28;20289;-85
2021/12/24 01:12:37;;;;;;;0.77;0.77;;;7.50;99.90;;;;;;5063222;28;20186;-85
2021/12/24 01:15:05;;;;;;;0.93;0.30;;;7.50;99.90;;;;;;5065026;28;20188;-85
2021/12/24 01:17:46;;;;;;;0.47;0.47;;;7.50;99.90;;;;;;5065310;28;20212;-84
2021/12/24 01:20:37;;;;;;;0.40;0.40;;;7.50;99.90;;;;;;5063678;28;20701;-85
2021/12/24 01:25:53;;;;;;;1.10;0.50;;;7.50;99.90;;;;;;5065376;28;20550;-85
2021/12/24 01:28:37;;;;;;;0.53;0.53;;;7.50;99.90;;;;;;5059367;28;20193;-85
2021/12/24 01:39:37;;;;;;;0.30;0.30;;;7.50;99.90;;;;;;5066355;28;20197;-85
2021/12/24 01:44:49;;;;;;;0.70;0.70;;;7.60;99.90;;;;;;5065506;28;20216;-85
2021/12/24 01:47:14;;;;;;;0.67;0.67;;;7.60;99.90;;;;;;5062296;28;20627;-84
2021/12/24 01:49:40;;;;;;;0.50;0.50;;;7.60;99.90;;;;;;5064566;28;20195;-85
2021/12/24 01:52:06;;;;;;;0.77;0.77;;;7.60;99.90;;;;;;5064472;28;20210;-85
2021/12/24 01:54:32;;;;;;;4.40;0.60;;;7.70;99.90;;;;;;5063316;28;20237;-84
2021/12/24 01:56:58;;;;;;;0.77;0.77;;;7.70;99.90;;;;;;5063165;28;20189;-85
2021/12/24 01:59:23;;;;;;;0.47;0.47;;;7.70;99.90;;;;;;5059819;28;20739;-84
2021/12/24 02:01:49;;;;;;;1.33;0.90;;;7.70;99.90;;;;;;5065526;28;20223;-85
2021/12/24 02:04:16;;;;;;;0.40;0.40;;;7.70;99.90;;;;;;5057863;28;20209;-85
2021/12/24 02:06:44;;;;;;;3.40;0.90;;;7.70;99.90;;;;;;5062543;28;20173;-85
2021/12/24 02:09:10;;;;;;;2.63;2.03;;;7.70;99.90;;;;;;5062160;28;20193;-85
2021/12/24 02:11:38;;;;;;;0.63;0.50;;;7.80;99.90;;;;;;5063832;28;20232;-84
2021/12/24 02:14:09;;;;;;;1.10;1.10;;;7.70;99.90;;;;;;5063822;28;20188;-85
2021/12/24 02:17:15;;;;;;;0.37;0.37;;;7.70;99.90;;;;;;5061812;28;20212;-85
2021/12/24 02:30:40;;;;;;;0.30;0.30;;;7.80;99.90;;;;;;5062623;28;20216;-85
2021/12/24 02:33:06;;;;;;;1.30;1.20;;;7.70;99.90;;;;;;5061595;28;20264;-84
2021/12/24 02:35:33;;;;;;;0.77;0.70;;;7.80;99.90;;;;;;5060288;28;20184;-84
2021/12/24 02:38:00;;;;;;;1.60;0.67;;;7.70;99.90;;;;;;5063510;28;20182;-85
2021/12/24 02:40:26;;;;;;;0.77;0.77;;;7.80;99.90;;;;;;5060849;28;20197;-85
2021/12/24 02:42:54;;;;;;;1.53;1.03;;;7.80;99.90;;;;;;5061118;28;20244;-85
2021/12/24 02:45:22;;;;;;;1.80;0.77;;;7.80;99.90;;;;;;5061761;28;21051;-84
2021/12/24 02:55:30;;;;;;;0.47;0.47;;;7.90;99.90;;;;;;5068796;28;20201;-84
2021/12/24 02:57:56;;;;;;;1.13;0.70;;;7.90;99.90;;;;;;5063786;28;20181;-85
2021/12/24 03:00:26;;;;;;;0.87;0.87;;;7.90;99.90;;;;;;5063887;28;20259;-84
2021/12/24 03:02:53;;;;;;;1.17;0.40;;;7.90;99.90;;;;;;5065836;28;20301;-84
2021/12/24 03:05:20;;;;;;;0.93;0.73;;;7.90;99.90;;;;;;5068041;28;20232;-85
2021/12/24 03:07:46;;;;;;;1.17;0.60;;;7.90;99.90;;;;;;5062934;28;20187;-85
2021/12/24 03:10:16;;;;;;;0.83;0.60;;;8.00;99.90;;;;;;5066025;28;20550;-85
2021/12/24 03:12:44;;;;;;;0.63;0.63;;;8.00;99.90;;;;;;5063145;28;20207;-85
2021/12/24 03:15:11;;;;;;;0.50;0.50;;;8.00;99.90;;;;;;5063591;28;20192;-85
2021/12/24 03:17:37;;;;;;;0.37;0.37;;;8.00;99.90;;;;;;5062252;28;20185;-85
2021/12/24 03:20:08;;;;;;;0.80;0.50;;;8.00;99.90;;;;;;5063876;28;20551;-85
2021/12/24 03:22:50;;;;;;;1.10;1.10;;;8.00;99.90;;;;;;5063541;28;20677;-85
2021/12/24 03:25:17;;;;;;;0.70;0.70;;;8.00;99.90;;;;;;5065996;28;20178;-84
2021/12/24 03:27:42;;;;;;;0.83;0.63;;;8.00;99.90;;;;;;5063435;28;20183;-85
2021/12/24 03:30:08;;;;;;;0.73;0.53;;;8.00;99.90;;;;;;5066247;28;20192;-85
2021/12/24 03:32:34;;;;;;;1.27;1.00;;;8.00;99.90;;;;;;5065517;28;20183;-84
2021/12/24 03:35:00;;;;;;;0.23;0.23;;;8.00;99.90;;;;;;5064025;28;21344;-85
2021/12/24 03:37:26;;;;;;;1.10;0.63;;;8.00;99.90;;;;;;5067420;28;20204;-85
2021/12/24 03:39:51;;;;;;;1.33;0.80;;;8.00;99.90;;;;;;5063820;28;20218;-85
2021/12/24 03:42:17;;;;;;;0.77;0.70;;;8.00;99.90;;;;;;5065227;28;20745;-84
2021/12/24 03:44:53;;;;;;;0.37;0.37;;;8.10;99.90;;;;;;5065816;28;20179;-84
2021/12/24 03:47:21;;;;;;;0.63;0.63;;;8.10;99.90;;;;;;5065683;28;20180;-85
2021/12/24 03:52:38;;;;;;;0.27;0.27;;;8.10;99.90;;;;;;5067513;28;20211;-85
2021/12/24 03:55:05;;;;;;;0.30;0.30;;;8.10;99.90;;;;;;5060137;28;20267;-85
2021/12/24 03:57:40;;;;;;;0.63;0.30;;;8.20;99.90;;;;;;5066506;28;20188;-84
2021/12/24 04:00:15;;;;;;;0.30;0.20;;;8.20;99.90;;;;;;5066544;28;20189;-85
2021/12/24 04:02:41;;;;;;;0.30;0.30;;;8.30;99.90;;;;;;5064850;28;20215;-85
2021/12/24 04:05:07;;;;;;;0.20;0.20;;;8.30;99.90;;;;;;5064869;28;20239;-85
2021/12/24 04:07:32;;;;;;;0.37;0.30;;;8.40;99.90;;;;;;5060744;28;20180;-85
2021/12/24 04:12:23;;;;;;;0.20;0.20;;;8.50;99.90;;;;;;5065346;28;20275;-85
2021/12/24 04:14:50;;;;;;;0.63;0.63;;;8.50;99.90;;;;;;5066519;28;20195;-85
2021/12/24 04:17:16;;;;;;;0.47;0.47;;;8.50;99.90;;;;;;5062451;28;20564;-85
2021/12/24 04:25:09;;;;;;;0.20;0.20;;;8.70;99.90;;;;;;5065520;28;20259;-84
2021/12/24 04:27:35;;;;;;;2.67;1.10;;;8.70;99.90;;;;;;5061486;28;20211;-85
2021/12/24 04:30:13;;;;;;;0.40;0.30;;;8.70;99.90;;;;;;5063253;28;20191;-85
2021/12/24 04:35:56;;;;;;;0.53;0.50;;;8.70;99.90;;;;;;5066379;28;20657;-85
2021/12/24 04:38:24;;;;;;;0.50;0.50;;;8.80;99.90;;;;;;5063597;28;20249;-85
2021/12/24 04:52:09;;;;;;;0.20;0.20;;;8.80;99.90;;;;;;5065143;28;20224;-84
2021/12/24 05:10:15;;;;;;;0.53;0.53;;;8.80;99.90;;;;;;5064827;28;20178;-86
2021/12/24 05:12:41;;;;;;;0.33;0.33;;;8.80;99.90;;;;;;5063845;28;20261;-84
2021/12/24 05:15:09;;;;;;;0.67;0.67;;;8.90;99.90;;;;;;5062225;28;20750;-84
2021/12/24 05:23:03;;;;;;;0.20;0.20;;;8.80;99.90;;;;;;5057440;28;20211;-85
2021/12/24 05:25:28;;;;;;;0.40;0.40;;;8.80;99.90;;;;;;5062491;28;20176;-84
2021/12/24 05:27:55;;;;;;;0.50;0.50;;;8.80;99.90;;;;;;5061726;28;20555;-85
2021/12/24 05:30:22;;;;;;;0.33;0.33;;;8.80;99.90;;;;;;5062396;28;20248;-84
2021/12/24 05:32:47;;;;;;;0.30;0.30;;;8.80;99.90;;;;;;5064061;28;20210;-84
2021/12/24 05:35:14;;;;;;;0.93;0.37;;;8.80;99.90;;;;;;5061970;28;20212;-84
2021/12/24 05:37:40;;;;;;;0.20;0.20;;;8.80;99.90;;;;;;5062250;28;20238;-84
2021/12/24 05:40:06;;;;;;;0.43;0.43;;;8.80;99.90;;;;;;5060094;28;20188;-84
2021/12/24 05:42:33;;;;;;;0.47;0.47;;;8.80;99.90;;;;;;5058056;28;20206;-84
2021/12/24 05:45:05;;;;;;;0.53;0.47;;;8.80;99.90;;;;;;5063748;28;20177;-85
2021/12/24 05:47:32;;;;;;;0.10;0.10;;;8.70;99.90;;;;;;5062909;28;20206;-84
2021/12/24 05:49:58;;;;;;;0.13;0.13;;;8.70;99.90;;;;;;5058861;28;20201;-84
2021/12/24 05:52:24;;;;;;;1.83;0.53;;;8.70;99.90;;;;;;5063926;28;21099;-84
2021/12/24 05:54:50;;;;;;;0.30;0.23;;;8.70;99.90;;;;;;5064297;28;20191;-85
2021/12/24 05:57:15;;;;;;;0.57;0.43;;;8.60;99.90;;;;;;5059967;28;20190;-84
2021/12/24 05:59:41;;;;;;;0.23;0.23;;;8.60;99.90;;;;;;5058584;28;20200;-85
2021/12/24 06:02:07;;;;;;;0.70;0.57;;;8.60;99.90;;;;;;5063550;28;20215;-84
2021/12/24 06:04:32;;;;;;;0.33;0.33;;;8.60;99.90;;;;;;5063966;28;20204;-84
2021/12/24 06:06:58;;;;;;;0.10;0.10;;;8.60;99.90;;;;;;5063580;28;20192;-85
2021/12/24 06:09:24;;;;;;;0.43;0.43;;;8.50;99.90;;;;;;5058980;28;20296;-83
2021/12/24 06:11:50;;;;;;;0.90;0.63;;;8.50;99.90;;;;;;5063977;28;20200;-83
2021/12/24 06:14:15;;;;;;;0.90;0.90;;;8.50;99.90;;;;;;5061124;28;20656;-84
2021/12/24 06:16:48;;;;;;;0.33;0.17;;;8.50;99.90;;;;;;5059766;28;20220;-83
2021/12/24 06:19:16;;;;;;;0.43;0.43;;;8.40;99.90;;;;;;5061225;28;20180;-83
2021/12/24 06:21:41;;;;;;;0.30;0.30;;;8.40;99.90;;;;;;5061891;28;20200;-84
2021/12/24 06:24:07;;;;;;;1.10;0.60;;;8.40;99.90;;;;;;5061104;28;20185;-84
2021/12/24 06:26:33;;;;;;;0.30;0.30;;;8.40;99.90;;;;;;5064180;28;20238;-84
2021/12/24 06:28:58;;;;;;;0.40;0.40;;;8.30;99.90;;;;;;5067285;28;20184;-84
2021/12/24 06:31:24;;;;;;;1.60;0.73;;;8.30;99.90;;;;;;5066013;28;20612;-84
2021/12/24 06:33:50;;;;;;;0.23;0.23;;;8.30;99.90;;;;;;5067437;28;20190;-83
2021/12/24 06:36:15;;;;;;;2.53;0.50;;;8.30;99.90;;;;;;5066605;28;20185;-84
2021/12/24 06:38:41;;;;;;;3.50;1.17;;;8.30;99.90;;;;;;5063310;28;20226;-84
2021/12/24 06:41:08;;;;;;;1.03;1.00;;;8.40;99.90;;;;;;5067149;28;20277;-85
2021/12/24 06:43:35;;;;;;;0.63;0.40;;;8.40;99.90;;;;;;5065976;28;20899;-84
2021/12/24 06:46:00;;;;;;;0.23;0.23;;;8.40;99.90;;;;;;5069230;28;20239;-84
2021/12/24 06:48:26;;;;;;;0.20;0.20;;;8.40;99.90;;;;;;5066245;28;20188;-84
2021/12/24 06:50:52;;;;;;;0.40;0.40;;;8.40;99.90;;;;;;5064349;28;20210;-83
2021/12/24 06:53:17;;;;;;;0.23;0.23;;;8.40;99.90;;;;;;5064955;28;20191;-84
2021/12/24 06:55:43;;;;;;;0.10;0.10;;;8.40;99.90;;;;;;5063152;28;20193;-84
2021/12/24 06:58:09;;;;;;;0.20;0.20;;;8.40;99.90;;;;;;5060572;28;20214;-83
2021/12/24 07:00:35;;;;;;;0.93;0.40;;;8.40;99.90;;;;;;5063974;28;20298;-82
2021/12/24 07:03:00;;;;;;;0.53;0.53;;;8.50;99.90;;;;;;5065164;28;20237;-82
2021/12/24 07:05:26;;;;;;;0.40;0.40;;;8.50;99.90;;;;;;5067088;28;20186;-82
2021/12/24 07:07:52;;;;;;;0.50;0.40;;;8.50;99.90;;;;;;5064829;28;20190;-82
2021/12/24 07:10:17;;;;;;;1.80;0.30;;;8.50;99.90;;;;;;5064307;28;20635;-81
2021/12/24 07:12:43;;;;;;;0.80;0.80;;;8.50;99.90;;;;;;5064490;28;20263;-82
2021/12/24 07:15:10;;;;;;;0.47;0.47;;;8.50;99.90;;;;;;5066548;28;20209;-82
2021/12/24 07:17:35;;;;;;;0.27;0.27;;;8.50;99.90;;;;;;5068600;28;20202;-82
2021/12/24 07:20:01;;;;;;;0.63;0.63;;;8.60;99.90;;;;;;5067017;28;20562;-81
2021/12/24 07:22:26;;;;;;;0.17;0.17;;;8.60;99.90;;;;;;5065606;28;21362;-82
2021/12/24 07:24:53;;;;;;;0.60;0.60;;;8.60;99.90;;;;;;5068137;28;20190;-82
2021/12/24 07:27:19;;;;;;;0.47;0.47;;;8.60;99.90;;;;;;5067793;28;20193;-82
2021/12/24 07:29:45;;;;;;;0.30;0.30;;;8.70;99.90;;;;;;5068080;28;20181;-82
2021/12/24 07:32:10;;;;;;;0.10;0.10;;;8.70;99.90;;;;;;5064070;28;20220;-82
2021/12/24 07:34:36;;;;;;;0.23;0.23;;;8.70;99.90;;;;;;5062783;28;21264;-83
2021/12/24 07:37:01;;;;;;;0.60;0.60;;;8.70;99.90;;;;;;5070002;28;20731;-82
2021/12/24 07:39:27;;;;;;;0.17;0.17;;;8.70;99.90;;;;;;5067838;28;20221;-82
2021/12/24 07:41:53;;;;;;;0.37;0.37;;;8.70;99.90;;;;;;5062781;28;20243;-82
2021/12/24 07:44:19;;;;;;;0.40;0.40;;;8.80;99.90;;;;;;5063062;28;20183;-82
2021/12/24 07:46:50;;;;;;;0.30;0.30;;;8.80;99.90;;;;;;5069274;28;20186;-82
2021/12/24 07:49:30;;;;;;;0.10;0.10;;;8.80;99.90;;;;;;5069704;28;20264;-82
2021/12/24 07:52:12;;;;;;;0.30;0.30;;;8.80;99.90;;;;;;5067063;28;21028;-82
2021/12/24 07:54:47;;;;;;;4.83;0.67;;;8.80;99.90;;;;;;5063661;28;21452;-82
2021/12/24 07:57:14;;;;;;;0.10;0.10;;;8.80;99.90;;;;;;5067425;28;21382;-82
2021/12/24 07:59:42;;;;;;;0.20;0.20;;;8.80;99.90;;;;;;5068607;28;20199;-82
2021/12/24 08:02:15;;;;;;;3.10;0.73;;;8.80;99.90;;;;;;5067361;28;20209;-82
2021/12/24 08:04:42;;;;;;;0.27;0.27;;;8.80;99.90;;;;;;5059442;28;20207;-82
2021/12/24 08:07:08;;;;;;;0.43;0.43;;;8.80;99.90;;;;;;5059856;28;20229;-82
2021/12/24 08:09:36;;;;;;;0.63;0.50;;;8.90;99.90;;;;;;5059150;28;20585;-81
2021/12/24 08:12:05;;;;;;;0.43;0.43;;;8.90;99.90;;;;;;5057238;28;20205;-81
2021/12/24 08:14:31;;;;;;;1.23;1.13;;;8.90;99.90;;;;;;5080170;28;20192;-86
2021/12/24 08:16:58;;;;;;;0.20;0.20;;;8.90;99.90;;;;;;5054328;28;20202;-84
2021/12/24 08:19:23;;;;;;;0.33;0.33;;;8.80;99.90;;;;;;5056748;28;20180;-84
2021/12/24 08:21:50;;;;;;;0.20;0.20;;;8.90;99.90;;;;;;5058516;28;20216;-81
2021/12/24 08:24:15;;;;;;;0.20;0.20;;;8.90;99.90;;;;;;5060413;28;20295;-81
2021/12/24 08:26:42;;;;;;;0.30;0.30;;;8.90;99.90;;;;;;5059254;28;20281;-81
2021/12/24 08:29:08;;;;;;;0.53;0.40;;;8.90;99.90;;;;;;5057801;28;20283;-81
2021/12/24 08:31:34;;;;;;;0.50;0.50;;;8.90;99.90;;;;;;5047983;28;20202;-82
2021/12/24 08:34:01;;;;;;;0.63;0.30;;;8.90;99.90;;;;;;5051736;28;20188;-81
2021/12/24 08:36:26;;;;;;;1.83;0.33;;;8.90;99.90;;;;;;5052921;28;20291;-82
2021/12/24 08:38:52;;;;;;;0.73;0.73;;;8.90;99.90;;;;;;5065023;28;20307;-81
2021/12/24 08:41:17;;;;;;;0.73;0.50;;;8.90;99.90;;;;;;5060940;28;20228;-82
2021/12/24 08:43:43;;;;;;;0.50;0.50;;;8.90;99.90;;;;;;5061497;28;20228;-82
2021/12/24 08:46:08;;;;;;;1.20;0.40;;;9.00;99.90;;;;;;5058572;28;20708;-82
2021/12/24 08:48:34;;;;;;;0.43;0.43;;;9.00;99.90;;;;;;5057277;28;20251;-81
2021/12/24 08:51:00;;;;;;;0.20;0.17;;;9.00;99.90;;;;;;5064962;28;20612;-82
2021/12/24 08:53:26;;;;;;;0.20;0.20;;;9.10;99.90;;;;;;5058954;28;20658;-82
2021/12/24 08:55:52;;;;;;;0.90;0.57;;;9.10;99.90;;;;;;5057447;28;20196;-81
2021/12/24 08:58:19;;;;;;;0.33;0.30;;;9.10;99.90;;;;;;5068046;28;20308;-82
2021/12/24 09:00:45;;;;;;;0.20;0.20;;;9.10;99.90;;;;;;5067767;28;20676;-81
2021/12/24 09:03:11;;;;;;;0.97;0.97;;;9.10;99.90;;;;;;5067827;28;20236;-82
2021/12/24 09:05:36;;;;;;;0.13;0.13;;;9.20;99.90;;;;;;5061674;28;20191;-82
2021/12/24 09:08:02;;;;;;;0.10;0.10;;;9.30;99.90;;;;;;5061779;28;20964;-82
2021/12/24 09:10:28;;;;;;;1.40;0.83;;;9.30;99.90;;;;;;5059123;28;20692;-82
2021/12/24 09:12:54;;;;;;;0.20;0.20;;;9.30;99.90;;;;;;5064082;28;20330;-81
2021/12/24 09:15:20;;;;;;;0.20;0.20;;;9.40;99.90;;;;;;5067196;28;20181;-81
2021/12/24 09:17:47;;;;;;;5.70;2.77;;;9.40;99.90;;;;;;5068977;28;20562;-82
2021/12/24 09:20:23;;;;;;;0.97;0.20;;;9.40;99.90;;;;;;5069897;28;20193;-81
2021/12/24 09:22:49;;;;;;;0.20;0.20;;;9.40;99.90;;;;;;5067936;28;20231;-82
2021/12/24 09:25:15;;;;;;;0.80;0.40;;;9.50;99.90;;;;;;5067862;28;20186;-82
2021/12/24 09:27:41;;;;;;;0.50;0.50;;;9.60;99.90;;;;;;5066254;28;20187;-81
2021/12/24 09:30:07;;;;;;;0.20;0.20;;;9.60;99.90;;;;;;5070092;28;20224;-81
2021/12/24 09:32:33;;;;;;;0.40;0.40;;;9.70;99.90;;;;;;5066577;28;20264;-81
2021/12/24 09:34:59;;;;;;;0.40;0.40;;;9.70;99.90;;;;;;5062393;28;20260;-81
2021/12/24 09:37:25;;;;;;;0.60;0.30;;;9.80;99.90;;;;;;5063955;28;20560;-82
2021/12/24 09:39:51;;;;;;;2.93;1.27;;;9.80;99.90;;;;;;5067338;28;20191;-81
2021/12/24 09:42:16;;;;;;;0.40;0.40;;;9.80;99.90;;;;;;5065617;28;20323;-82
2021/12/24 09:44:42;;;;;;;0.20;0.20;;;9.90;99.90;;;;;;5071144;28;20179;-82
2021/12/24 09:47:07;;;;;;;0.17;0.17;;;9.90;99.90;;;;;;5072661;28;20195;-83
2021/12/24 09:49:33;;;;;;;0.57;0.57;;;9.90;99.90;;;;;;5069429;28;20197;-81
2021/12/24 09:52:01;;;;;;;0.60;0.60;;;9.90;99.90;;;;;;5064671;28;20358;-81
2021/12/24 09:54:26;;;;;;;0.40;0.40;;;10.00;99.90;;;;;;5070649;28;20198;-82
2021/12/24 09:56:54;;;;;;;0.70;0.57;;;10.00;99.90;;;;;;5065244;28;20907;-82
2021/12/24 09:59:21;;;;;;;1.00;0.93;;;10.00;99.90;;;;;;5062769;28;20253;-85
2021/12/24 10:01:55;;;;;;;0.40;0.40;;;10.00;99.90;;;;;;5068282;28;20288;-84
2021/12/24 10:04:24;;;;;;;0.60;0.60;;;10.10;99.90;;;;;;5067486;28;20196;-84
2021/12/24 10:06:53;;;;;;;0.30;0.30;;;10.10;99.90;;;;;;5067938;28;20271;-83
2021/12/24 10:09:19;;;;;;;0.30;0.30;;;10.10;99.90;;;;;;5065170;28;20182;-83
2021/12/24 10:11:51;;;;;;;0.67;0.67;;;10.10;99.90;;;;;;5064440;28;20207;-83
2021/12/24 10:14:27;;;;;;;0.33;0.30;;;10.00;99.90;;;;;;5068713;28;20261;-82
2021/12/24 10:16:54;;;;;;;0.87;0.30;;;10.00;99.90;;;;;;5064229;28;20205;-82
2021/12/24 10:19:20;;;;;;;1.60;0.47;;;10.00;99.90;;;;;;5062985;28;20224;-83
2021/12/24 10:21:47;;;;;;;0.33;0.33;;;10.00;99.90;;;;;;5069274;28;20689;-83
2021/12/24 10:24:16;;;;;;;1.03;1.03;;;10.00;99.90;;;;;;5072371;28;20179;-83
2021/12/24 10:26:51;;;;;;;0.50;0.40;;;10.00;99.90;;;;;;5070536;28;20184;-83
2021/12/24 10:29:38;;;;;;;3.27;0.90;;;9.90;99.90;;;;;;5070407;28;20207;-83
2021/12/24 10:32:13;;;;;;;0.30;0.30;;;10.00;99.90;;;;;;5069653;28;20203;-83
2021/12/24 10:34:41;;;;;;;1.70;0.87;;;9.90;99.90;;;;;;5068775;28;20189;-83
2021/12/24 10:37:22;;;;;;;0.30;0.30;;;9.90;99.90;;;;;;5067636;28;20608;-83
2021/12/24 10:39:54;;;;;;;0.83;0.83;;;9.90;99.90;;;;;;5068828;28;20732;-83
2021/12/24 10:42:21;;;;;;;0.20;0.20;;;9.90;99.90;;;;;;5066427;28;20701;-83
2021/12/24 10:44:49;;;;;;;0.73;0.40;;;9.90;99.90;;;;;;5066095;28;20190;-83
2021/12/24 10:47:22;;;;;;;0.87;0.17;;;9.90;99.90;;;;;;5065816;28;20184;-84
2021/12/24 10:50:10;;;;;;;0.80;0.40;;;9.90;99.90;;;;;;5065552;28;20275;-84
2021/12/24 10:52:57;;;;;;;0.10;0.10;;;9.90;99.90;;;;;;5065635;28;20185;-83
2021/12/24 10:55:27;;;;;;;4.83;0.93;;;9.90;99.90;;;;;;5066649;28;20755;-83
2021/12/24 10:57:56;;;;;;;0.37;0.37;;;9.90;99.90;;;;;;5064085;28;20185;-84
2021/12/24 11:00:34;;;;;;;0.73;0.73;;;10.00;99.90;;;;;;5065300;28;20457;-83
2021/12/24 11:03:09;;;;;;;0.87;0.33;;;10.00;99.90;;;;;;5070568;28;20283;-84
2021/12/24 11:05:36;;;;;;;1.00;0.50;;;10.00;99.90;;;;;;5065376;28;20729;-84
2021/12/24 11:08:08;;;;;;;0.23;0.23;;;10.00;99.90;;;;;;5073133;28;20573;-81
2021/12/24 11:10:37;;;;;;;0.67;0.67;;;10.10;99.90;;;;;;5074342;28;20250;-83
2021/12/24 11:13:09;;;;;;;0.20;0.20;;;10.10;99.90;;;;;;5069726;28;20191;-83
2021/12/24 11:15:52;;;;;;;0.30;0.30;;;10.20;99.90;;;;;;5073543;28;20188;-84
2021/12/24 11:18:23;;;;;;;0.63;0.30;;;10.10;99.90;;;;;;5075595;28;20192;-84
2021/12/24 11:20:58;;;;;;;0.20;0.20;;;10.10;99.90;;;;;;5072136;28;20204;-83
2021/12/24 11:23:26;;;;;;;0.40;0.40;;;10.10;99.90;;;;;;5072507;28;20211;-83
2021/12/24 11:25:55;;;;;;;0.50;0.30;;;10.00;99.90;;;;;;5074329;28;20193;-84
2021/12/24 11:28:25;;;;;;;0.30;0.30;;;10.00;99.90;;;;;;5077438;28;20183;-84
2021/12/24 11:30:55;;;;;;;0.53;0.53;;;10.00;99.90;;;;;;5075966;28;20274;-84
2021/12/24 11:33:27;;;;;;;0.33;0.33;;;10.00;99.90;;;;;;5071850;28;20177;-83
2021/12/24 11:35:54;;;;;;;0.73;0.73;;;10.00;99.90;;;;;;5073469;28;20359;-84
2021/12/24 11:38:25;;;;;;;1.10;0.50;;;10.10;99.90;;;;;;5081033;28;20188;-83
2021/12/24 11:40:53;;;;;;;1.13;0.47;;;10.10;99.90;;;;;;5077405;28;20212;-84
2021/12/24 11:43:21;;;;;;;0.70;0.70;;;10.20;99.90;;;;;;5079015;28;20826;-84
2021/12/24 11:45:46;;;;;;;0.60;0.40;;;10.30;99.90;;;;;;5079531;28;20215;-83
2021/12/24 11:48:12;;;;;;;1.43;0.70;;;10.40;99.90;;;;;;5073102;28;20191;-83
2021/12/24 11:50:38;;;;;;;0.33;0.33;;;10.30;99.90;;;;;;5075050;28;20197;-83
2021/12/24 11:53:08;;;;;;;0.20;0.20;;;10.20;99.90;;;;;;5069249;28;20194;-84
2021/12/24 11:55:40;;;;;;;0.97;0.77;;;10.20;99.90;;;;;;5074320;28;20281;-83
2021/12/24 11:58:14;;;;;;;0.37;0.37;;;10.20;99.90;;;;;;5064446;28;20203;-83
2021/12/24 12:00:43;;;;;;;0.50;0.50;;;10.30;99.90;;;;;;5067706;28;21126;-84
2021/12/24 12:03:10;;;;;;;0.27;0.23;;;10.20;99.90;;;;;;5068329;28;20238;-82
2021/12/24 12:05:41;;;;;;;0.90;0.90;;;10.30;99.90;;;;;;5071911;28;20188;-84
2021/12/24 12:08:30;;;;;;;0.33;0.23;;;10.20;99.90;;;;;;5071537;28;20209;-81
2021/12/24 12:11:01;;;;;;;1.10;0.60;;;10.30;99.90;;;;;;5070873;28;20200;-82
2021/12/24 12:13:39;;;;;;;0.60;0.60;;;10.30;99.90;;;;;;5070498;28;20247;-82
2021/12/24 12:16:08;;;;;;;0.13;0.13;;;10.30;99.90;;;;;;5070644;28;21097;-81
2021/12/24 12:18:43;;;;;;;0.80;0.37;;;10.30;99.90;;;;;;5065488;28;20195;-81
2021/12/24 12:21:33;;;;;;;0.67;0.60;;;10.30;99.90;;;;;;5067569;28;20628;-81
2021/12/24 12:26:43;;;;;;;0.10;0.10;;;10.30;99.90;;;;;;5075198;28;20184;-82
2021/12/24 12:29:34;;;;;;;0.50;0.50;;;10.30;99.90;;;;;;5070092;28;20175;-81
2021/12/24 12:32:15;;;;;;;0.33;0.33;;;10.30;99.90;;;;;;5067983;28;20204;-82
2021/12/24 12:34:43;;;;;;;0.10;0.10;;;10.20;99.90;;;;;;5066330;28;20535;-82
2021/12/24 12:37:25;;;;;;;1.73;0.40;;;10.30;99.90;;;;;;5065288;28;20602;-82
2021/12/24 12:40:25;;;;;;;0.70;0.50;;;10.20;99.90;;;;;;5068174;28;20592;-82
2021/12/24 12:42:51;;;;;;;0.17;0.17;;;10.20;99.90;;;;;;5072666;28;20241;-82
2021/12/24 12:45:20;;;;;;;0.30;0.30;;;10.20;99.90;;;;;;5067993;28;20195;-82
2021/12/24 12:47:54;;;;;;;0.73;0.73;;;10.20;99.90;;;;;;5069630;28;20192;-81
2021/12/24 12:50:21;;;;;;;0.10;0.10;;;10.20;99.90;;;;;;5071770;28;20180;-81
2021/12/24 12:52:47;;;;;;;0.20;0.20;;;10.30;99.90;;;;;;5073161;28;20216;-82
2021/12/24 12:55:36;;;;;;;0.20;0.20;;;10.30;99.90;;;;;;5074160;28;20617;-81
2021/12/24 12:58:23;;;;;;;0.30;0.30;;;10.20;99.90;;;;;;5068253;28;20275;-81
2021/12/24 13:01:11;;;;;;;0.20;0.20;;;10.20;99.90;;;;;;5068130;28;20227;-80
2021/12/24 13:04:06;;;;;;;0.40;0.40;;;10.20;99.90;;;;;;5066446;28;20220;-80
2021/12/24 13:06:35;;;;;;;0.20;0.20;;;10.30;99.90;;;;;;5068213;28;20185;-82
2021/12/24 13:09:04;;;;;;;0.20;0.20;;;10.30;99.90;;;;;;5066445;28;20543;-83
2021/12/24 13:11:38;;;;;;;0.20;0.20;;;10.30;99.90;;;;;;5063725;28;20215;-83
2021/12/24 13:14:05;;;;;;;0.63;0.47;;;10.20;99.90;;;;;;5064586;28;20192;-83
2021/12/24 13:16:45;;;;;;;0.20;0.20;;;10.20;99.90;;;;;;5064053;28;20396;-83
2021/12/24 13:22:29;;;;;;;0.30;0.30;;;10.20;99.90;;;;;;5067131;28;20198;-82
2021/12/24 13:24:59;;;;;;;0.20;0.20;;;10.30;99.90;;;;;;5054909;28;20210;-81
2021/12/24 13:27:28;;;;;;;0.30;0.30;;;10.30;99.90;;;;;;5065048;28;20176;-81
2021/12/24 13:30:18;;;;;;;0.67;0.67;;;10.20;99.90;;;;;;5067689;28;20559;-82
2021/12/24 13:33:00;;;;;;;0.17;0.17;;;10.20;99.90;;;;;;5063881;28;20765;-82
2021/12/24 13:35:44;;;;;;;0.77;0.77;;;10.10;99.90;;;;;;5059887;28;20184;-81
2021/12/24 13:38:15;;;;;;;0.33;0.33;;;10.10;99.90;;;;;;5062599;28;20179;-81
2021/12/24 13:40:40;;;;;;;0.10;0.10;;;10.00;99.90;;;;;;5068036;28;20746;-81
2021/12/24 13:43:11;;;;;;;0.63;0.63;;;10.10;99.90;;;;;;5068276;28;20199;-81
2021/12/24 13:45:38;;;;;;;0.43;0.43;;;10.00;99.90;;;;;;5068695;28;20169;-81
2021/12/24 13:48:26;;;;;;;0.47;0.47;;;10.10;99.90;;;;;;5066143;28;21131;-82
2021/12/24 13:56:25;;;;;;;0.63;0.30;;;10.00;99.90;;;;;;5070922;28;20187;-81
2021/12/24 13:58:57;;;;;;;0.10;0.10;;;10.00;99.90;;;;;;5068989;28;20299;-81
2021/12/24 14:01:28;;;;;;;0.70;0.70;;;10.00;99.90;;;;;;5068934;28;20213;-81
2021/12/24 14:03:54;;;;;;;0.23;0.23;;;10.00;99.90;;;;;;5070175;28;20201;-80
2021/12/24 14:06:21;;;;;;;0.40;0.23;;;9.90;99.90;;;;;;5069481;28;20186;-81
2021/12/24 14:08:46;;;;;;;0.27;0.10;;;10.00;99.90;;;;;;5067882;28;20181;-81
2021/12/24 14:11:18;;;;;;;0.50;0.50;;;10.00;99.90;;;;;;5064034;28;20287;-81
2021/12/24 14:13:51;;;;;;;0.30;0.30;;;10.00;99.90;;;;;;5068630;28;20184;-81
2021/12/24 14:18:49;;;;;;;0.20;0.20;;;10.00;99.90;;;;;;5068403;28;20186;-81
2021/12/24 14:24:27;;;;;;;0.50;0.50;;;10.00;99.90;;;;;;5070253;28;20276;-81
2021/12/24 14:26:59;;;;;;;0.10;0.10;;;9.90;99.90;;;;;;5069919;28;20318;-81
2021/12/24 14:29:33;;;;;;;0.13;0.13;;;9.90;99.90;;;;;;5068763;28;20180;-81
2021/12/24 14:32:03;;;;;;;0.20;0.20;;;9.80;99.90;;;;;;5063843;28;21003;-82
2021/12/24 14:34:39;;;;;;;0.20;0.20;;;9.90;99.90;;;;;;5069768;28;20184;-82
2021/12/24 14:37:25;;;;;;;0.80;0.40;;;9.90;99.90;;;;;;5064717;28;20877;-82
2021/12/24 14:39:58;;;;;;;0.10;0.10;;;9.90;99.90;;;;;;5067546;28;20410;-81
2021/12/24 14:42:27;;;;;;;0.10;0.10;;;9.90;99.90;;;;;;5067495;28;20584;-82
2021/12/24 14:45:25;;;;;;;0.30;0.30;;;9.90;99.90;;;;;;5071477;28;20523;-82
2021/12/24 14:48:20;;;;;;;0.20;0.20;;;9.80;99.90;;;;;;5071156;28;20187;-82
2021/12/24 14:50:50;;;;;;;0.57;0.57;;;9.80;99.90;;;;;;5073946;28;20192;-81
2021/12/24 14:53:25;;;;;;;0.10;0.10;;;9.90;99.90;;;;;;5070789;28;20172;-81
2021/12/24 14:55:53;;;;;;;0.40;0.37;;;9.90;99.90;;;;;;5070030;28;20200;-82
2021/12/24 14:58:35;;;;;;;0.37;0.37;;;9.90;99.90;;;;;;5071568;28;20199;-82